Sandpoint, ID (83865)

3:19 AM PDT on October 25, 2014 (GMT -0700)
Selle Valley | Change Station
CLOSE
Current Station
Personal Weather Station
Location: Sandpoint, ID
Elevation: 2169 ft
Nearby Weather Stations

Elev 2169 ft 48.38 °N, 116.48 °W | Updated 2 seconds ago

Partly Cloudy
Partly Cloudy
45.0 °F
Feels Like 45 °F
N
3.0
Wind Variable Wind from NNW
Gusts 9.0 mph

Today
High -- | Low -- °F
--% Chance of Precip.
Yesterday
High -- | Low -- °F
Precip. -- in
7:21 AM 5:38 PM
New Moon, 2% visible
Pressure 29.91 in
Visibility 10.0 miles
Clouds Clear
Windchill 45 °F
Dew Point 41 °F
Humidity 85%
Rainfall 0.00 in
Snow Depth Not available.
UV 0 out of 12
Pollen 1.20 out of 12
Air Quality Not available.
Flu Activity No Activity
METAR KSZT 250955Z AUTO 04013KT 10SM CLR 07/03 A2991 RMK AO2

More Conditions Fewer Conditions

Pressure 29.91 in
Visibility 10.0 miles
Clouds Clear
Windchill 45 °F
Dew Point 41 °F
Humidity 85%
Rainfall 0.00 in
Snow Depth Not available.
UV 0 out of 12
Pollen 1.20 out of 12
Air Quality Not available.
Flu Activity No Activity
METAR KSZT 250955Z AUTO 04013KT 10SM CLR 07/03 A2991 RMK AO2

More Conditions Fewer Conditions

10-Day Weather Forecast

Almanac

Astronomy

Oct. 25, 2014 Rise Set
Actual Time 7:21 AM PDT 5:38 PM PDT
Civil Twilight 6:49 AM PDT 6:10 PM PDT
Nautical Twilight 6:12 AM PDT 6:47 PM PDT
Astronomical Twilight 5:36 AM PDT 7:23 PM PDT
Moon 9:10 AM PDT 6:57 PM PDT
Length of Visible Light 11h 21m
Length of Day
10h 17m
Tomorrow will be 3m 17s shorter.
New Moon, 2% of the Moon is Illuminated
Today
New Moon
Oct 30
First Quarter
Nov 6
Full
Nov 14
Last Quarter
Nov 22
New

Today's Extremes

State Highs State Lows

Community

WunderPhotos

Upload Photos

1,764,796 photos uploaded!

Nearby

Snow Depth

Station Depth Elevation
Schweitzer Basin 0 in 6090 ft
Bear Mountain 0 in 5400 ft
Myrtle Creek 1 in 3520 ft
Mosquito Ridge 0 in 5200 ft
Hidden Lake 1 in 5040 ft

Earthquake Activity

City Distance Mag. Time & Date
No recent earthquake activity has been reported nearby.
Minimum magnitude displayed is 2.5.

Coastal Water Temperatures

Place Temperature
No Stations Reporting

Nearby Weather Stations